Time;durP1;ratioP1;P1;durP2;ratioP2;P2;SDS_P1;SDS_P2;PMS_P1;PMS_P2;Temp;Humidity;BMP_temperature;BMP_pressure;BME280_temperature;BME280_humidity;BME280_pressure;Samples;Min_cycle;Max_cycle;Signal;HPM_P1;HPM_P2
2021/04/17 00:02:35;;;;;;;6.80;3.73;;;;;4.80;102157.00;;;;10439177;28;20210;-76
2021/04/17 00:07:37;;;;;;;7.57;3.93;;;;;4.80;102156.00;;;;10472602;28;20215;-76
2021/04/17 00:12:39;;;;;;;9.50;3.93;;;;;4.70;102156.00;;;;10488873;28;20212;-76
2021/04/17 00:17:41;;;;;;;7.27;3.87;;;;;4.70;102151.00;;;;10488607;28;20285;-76
2021/04/17 00:22:43;;;;;;;7.23;3.97;;;;;4.70;102152.00;;;;10455662;28;20202;-76
2021/04/17 00:27:44;;;;;;;6.50;4.00;;;;;4.60;102149.00;;;;10491565;28;20229;-76
2021/04/17 00:32:46;;;;;;;5.17;3.77;;;;;4.50;102152.00;;;;10479805;28;20189;-76
2021/04/17 00:37:49;;;;;;;5.57;3.40;;;;;4.50;102160.00;;;;10463829;28;20576;-76
2021/04/17 00:42:51;;;;;;;9.47;4.20;;;;;4.40;102150.00;;;;10513651;28;20212;-76
2021/04/17 00:47:53;;;;;;;7.07;4.10;;;;;4.40;102154.00;;;;10505140;28;20192;-76
2021/04/17 00:52:56;;;;;;;7.17;3.47;;;;;4.30;102160.00;;;;10521578;28;20713;-76
2021/04/17 00:58:04;;;;;;;6.60;3.70;;;;;4.20;102163.00;;;;10441310;28;20775;-76
2021/04/17 01:03:33;;;;;;;8.70;4.03;;;;;4.20;102154.00;;;;10471256;28;20249;-76
2021/04/17 01:08:44;;;;;;;8.73;3.67;;;;;4.10;102151.00;;;;10454480;28;20316;-75
2021/04/17 01:13:46;;;;;;;7.83;3.97;;;;;4.00;102155.00;;;;10471422;28;20186;-76
2021/04/17 01:18:49;;;;;;;4.30;3.23;;;;;3.80;102165.00;;;;10454805;28;20518;-75
2021/04/17 01:23:59;;;;;;;5.40;3.57;;;;;3.60;102156.00;;;;10460335;28;20665;-76
2021/04/17 01:29:01;;;;;;;5.80;3.67;;;;;3.50;102159.00;;;;10462627;28;20645;-75
2021/04/17 01:34:04;;;;;;;8.57;3.93;;;;;3.40;102155.00;;;;10436795;28;20248;-76
2021/04/17 01:39:10;;;;;;;7.53;3.53;;;;;3.40;102156.00;;;;10436766;28;20198;-76
2021/04/17 01:44:20;;;;;;;7.07;3.90;;;;;3.30;102154.00;;;;10453379;28;20218;-75
2021/04/17 01:49:23;;;;;;;5.17;4.03;;;;;3.30;102146.00;;;;10437986;28;20191;-75
2021/04/17 01:54:33;;;;;;;5.60;4.10;;;;;3.30;102157.00;;;;10444923;28;20193;-75
2021/04/17 01:59:36;;;;;;;7.50;3.97;;;;;3.20;102151.00;;;;10477742;28;20190;-76
2021/04/17 02:04:38;;;;;;;7.77;4.00;;;;;3.10;102148.00;;;;10476949;28;20214;-76
2021/04/17 02:09:40;;;;;;;10.23;4.80;;;;;2.90;102147.00;;;;10460993;28;20553;-76
2021/04/17 02:14:42;;;;;;;6.73;4.13;;;;;2.80;102143.00;;;;10460228;28;20190;-75
2021/04/17 02:20:35;;;;;;;6.63;4.17;;;;;2.70;102148.00;;;;10460145;28;20194;-75
2021/04/17 02:25:37;;;;;;;9.17;4.53;;;;;2.60;102147.00;;;;10436686;28;20300;-76
2021/04/17 02:30:39;;;;;;;7.13;4.27;;;;;2.50;102140.00;;;;10484974;28;20251;-75
2021/04/17 02:35:41;;;;;;;6.60;4.43;;;;;2.40;102147.00;;;;10484586;28;20268;-75
2021/04/17 02:40:43;;;;;;;8.90;4.70;;;;;2.40;102147.00;;;;10484029;28;20196;-75
2021/04/17 02:45:45;;;;;;;12.50;4.77;;;;;2.30;102136.00;;;;10483351;28;20259;-76
2021/04/17 02:50:47;;;;;;;8.87;4.87;;;;;2.20;102149.00;;;;10467539;28;20194;-75
2021/04/17 02:55:49;;;;;;;8.77;4.83;;;;;2.20;102148.00;;;;10467796;28;20200;-75
2021/04/17 03:00:52;;;;;;;7.73;5.10;;;;;2.10;102146.00;;;;10467135;28;20690;-76
2021/04/17 03:05:54;;;;;;;9.27;4.33;;;;;2.00;102151.00;;;;10483372;28;20209;-75
2021/04/17 03:10:56;;;;;;;9.87;5.23;;;;;2.00;102148.00;;;;10483663;28;20229;-75
2021/04/17 03:15:58;;;;;;;11.77;5.20;;;;;1.90;102137.00;;;;10466585;28;20192;-75
2021/04/17 03:21:01;;;;;;;8.47;5.13;;;;;1.90;102143.00;;;;10499368;28;20201;-75
2021/04/17 03:26:03;;;;;;;9.80;5.47;;;;;1.80;102149.00;;;;10482529;28;20210;-75
2021/04/17 03:31:05;;;;;;;11.50;5.17;;;;;1.70;102134.00;;;;10500580;28;20716;-75
2021/04/17 03:36:08;;;;;;;11.00;6.13;;;;;1.70;102132.00;;;;10481950;28;20182;-76
2021/04/17 03:41:10;;;;;;;9.97;6.17;;;;;1.70;102144.00;;;;10497562;28;20189;-75
2021/04/17 03:46:12;;;;;;;14.17;6.27;;;;;1.70;102146.00;;;;10498305;28;20240;-75
2021/04/17 03:51:15;;;;;;;9.63;6.03;;;;;1.60;102144.00;;;;10498341;28;20269;-75
2021/04/17 03:56:17;;;;;;;11.20;5.77;;;;;1.60;102162.00;;;;10480769;28;20201;-75
2021/04/17 04:01:19;;;;;;;11.97;6.47;;;;;1.50;102152.00;;;;10497691;28;20193;-75
2021/04/17 04:06:21;;;;;;;15.60;6.13;;;;;1.40;102153.00;;;;10480987;28;20278;-75
2021/04/17 04:11:23;;;;;;;11.47;6.63;;;;;1.40;102147.00;;;;10498884;28;20217;-75
2021/04/17 04:16:25;;;;;;;15.00;6.07;;;;;1.40;102155.00;;;;10479908;28;20632;-75
2021/04/17 04:21:27;;;;;;;17.73;7.33;;;;;1.30;102159.00;;;;10497414;28;20790;-75
2021/04/17 04:26:29;;;;;;;16.13;6.87;;;;;1.30;102168.00;;;;10480340;28;20289;-75
2021/04/17 04:31:31;;;;;;;11.83;6.70;;;;;1.20;102166.00;;;;10446993;28;20300;-75
2021/04/17 04:36:33;;;;;;;11.70;6.67;;;;;1.20;102166.00;;;;10480190;28;20193;-75
2021/04/17 04:41:36;;;;;;;15.70;7.90;;;;;1.20;102176.00;;;;10463594;28;20197;-75
2021/04/17 04:46:38;;;;;;;11.47;7.07;;;;;1.20;102180.00;;;;10479204;28;20259;-75
2021/04/17 04:51:40;;;;;;;16.80;7.23;;;;;1.20;102183.00;;;;10479961;28;20197;-75
2021/04/17 04:56:42;;;;;;;15.30;7.30;;;;;1.20;102177.00;;;;10506773;28;20201;-75
2021/04/17 05:01:44;;;;;;;15.40;6.90;;;;;1.30;102186.00;;;;10521360;28;20276;-75
2021/04/17 05:06:46;;;;;;;14.63;7.97;;;;;1.40;102191.00;;;;10539352;28;20236;-75
2021/04/17 05:11:49;;;;;;;12.37;7.37;;;;;1.60;102194.00;;;;10520442;28;20189;-75
2021/04/17 05:16:51;;;;;;;16.37;8.90;;;;;1.70;102187.00;;;;10504778;28;20189;-75
2021/04/17 05:21:53;;;;;;;12.57;8.10;;;;;1.90;102191.00;;;;10520570;28;20965;-75
2021/04/17 05:26:54;;;;;;;14.77;7.67;;;;;2.10;102194.00;;;;10514332;28;20224;-75
2021/04/17 05:31:57;;;;;;;15.57;7.37;;;;;2.10;102194.00;;;;10487997;28;20646;-75
2021/04/17 05:36:59;;;;;;;11.57;7.37;;;;;2.20;102201.00;;;;10462205;28;20183;-75
2021/04/17 05:42:01;;;;;;;13.90;7.63;;;;;2.30;102200.00;;;;10461885;28;20198;-75
2021/04/17 05:47:03;;;;;;;13.83;6.97;;;;;2.50;102193.00;;;;10462871;28;21090;-75
2021/04/17 05:52:05;;;;;;;15.23;7.37;;;;;2.70;102194.00;;;;10444667;28;20917;-75
2021/04/17 05:57:07;;;;;;;11.20;6.93;;;;;3.00;102192.00;;;;10485932;28;21004;-75
2021/04/17 06:02:09;;;;;;;19.57;8.67;;;;;3.50;102197.00;;;;10465708;28;20198;-75
2021/04/17 06:07:11;;;;;;;15.57;7.47;;;;;4.20;102195.00;;;;10474010;28;20218;-75
2021/04/17 06:12:14;;;;;;;16.73;7.50;;;;;4.70;102200.00;;;;10485246;28;20280;-75
2021/04/17 06:17:55;;;;;;;9.27;6.07;;;;;5.50;102202.00;;;;10454134;28;20202;-75
2021/04/17 06:22:57;;;;;;;12.30;6.50;;;;;6.10;102204.00;;;;10459670;28;20234;-75
2021/04/17 06:27:59;;;;;;;9.07;6.20;;;;;6.60;102192.00;;;;10513976;28;20200;-75
2021/04/17 06:33:01;;;;;;;9.60;5.60;;;;;7.00;102191.00;;;;10500846;28;20239;-75
2021/04/17 06:38:03;;;;;;;9.80;5.27;;;;;7.30;102193.00;;;;10467274;28;20687;-75
2021/04/17 06:43:07;;;;;;;10.70;5.70;;;;;7.60;102191.00;;;;10500227;28;20217;-75
2021/04/17 06:48:49;;;;;;;8.67;4.97;;;;;8.00;102186.00;;;;10460326;28;20711;-75
2021/04/17 06:53:51;;;;;;;11.37;4.50;;;;;8.40;102184.00;;;;10503815;28;20227;-75
2021/04/17 06:58:54;;;;;;;9.30;5.00;;;;;8.60;102187.00;;;;10524461;28;20254;-75
2021/04/17 07:04:33;;;;;;;9.17;5.37;;;;;9.00;102202.00;;;;10499733;28;20221;-75
2021/04/17 07:11:53;;;;;;;12.73;5.67;;;;;9.30;102197.00;;;;10458056;28;20288;-76
2021/04/17 07:17:02;;;;;;;10.83;4.70;;;;;9.50;102188.00;;;;10477250;28;20197;-76
2021/04/17 07:22:38;;;;;;;8.70;5.30;;;;;10.00;102197.00;;;;10490370;28;20194;-76
2021/04/17 07:27:50;;;;;;;12.17;4.90;;;;;10.50;102190.00;;;;10503988;28;20238;-76
2021/04/17 07:35:18;;;;;;;12.83;6.07;;;;;10.20;102197.00;;;;10490516;28;20197;-76
2021/04/17 07:40:25;;;;;;;9.43;5.27;;;;;9.90;102196.00;;;;10458738;28;20281;-76
2021/04/17 07:47:44;;;;;;;7.83;5.20;;;;;10.60;102194.00;;;;10466676;28;20208;-76
2021/04/17 07:52:47;;;;;;;6.97;5.13;;;;;10.80;102188.00;;;;10483122;28;20241;-76
2021/04/17 07:58:44;;;;;;;8.30;4.80;;;;;11.20;102189.00;;;;10456738;28;20277;-76
2021/04/17 08:03:47;;;;;;;7.37;4.27;;;;;11.60;102181.00;;;;10450341;28;20217;-77
2021/04/17 08:08:50;;;;;;;9.93;4.80;;;;;12.10;102182.00;;;;10498831;28;20209;-76
2021/04/17 08:13:53;;;;;;;7.63;4.80;;;;;12.30;102178.00;;;;10479978;28;20197;-76
2021/04/17 08:18:56;;;;;;;10.20;4.80;;;;;12.30;102179.00;;;;10453198;28;20244;-76
2021/04/17 08:24:10;;;;;;;7.33;4.67;;;;;12.90;102176.00;;;;10444772;28;20213;-76
2021/04/17 08:29:11;;;;;;;8.30;4.67;;;;;13.00;102168.00;;;;10498332;28;20243;-76
2021/04/17 08:34:21;;;;;;;6.27;4.80;;;;;13.40;102165.00;;;;10496128;28;20216;-76
2021/04/17 08:39:31;;;;;;;5.63;4.37;;;;;13.80;102161.00;;;;10464929;28;20240;-76
2021/04/17 08:44:34;;;;;;;6.93;4.73;;;;;13.90;102167.00;;;;10485963;28;20247;-75
2021/04/17 08:49:37;;;;;;;6.03;3.83;;;;;14.40;102171.00;;;;10462960;28;20197;-75
2021/04/17 08:54:40;;;;;;;8.03;4.33;;;;;14.70;102172.00;;;;10474019;28;20185;-76
2021/04/17 08:59:43;;;;;;;6.43;4.33;;;;;15.00;102171.00;;;;10509900;28;20572;-76
2021/04/17 09:05:01;;;;;;;8.90;3.97;;;;;15.20;102162.00;;;;10506515;28;20214;-75
2021/04/17 09:10:21;;;;;;;7.40;4.63;;;;;15.70;102165.00;;;;10504144;28;20193;-74
2021/04/17 09:15:56;;;;;;;5.67;3.70;;;;;15.90;102160.00;;;;10487724;28;20194;-74
2021/04/17 09:21:18;;;;;;;6.27;3.40;;;;;16.00;102152.00;;;;10486909;28;20660;-74
2021/04/17 09:26:36;;;;;;;7.70;4.40;;;;;16.20;102162.00;;;;10487416;28;20267;-75
2021/04/17 09:31:48;;;;;;;7.83;3.63;;;;;16.20;102150.00;;;;10471308;28;20239;-75
2021/04/17 09:36:50;;;;;;;5.47;3.70;;;;;16.50;102150.00;;;;10496810;28;20197;-75
2021/04/17 09:41:53;;;;;;;6.13;3.80;;;;;16.40;102134.00;;;;10520856;28;20814;-74
2021/04/17 09:47:09;;;;;;;9.90;3.83;;;;;16.30;102144.00;;;;10481020;28;20274;-75
2021/04/17 09:52:18;;;;;;;5.43;3.53;;;;;16.70;102135.00;;;;10520094;28;20213;-75
2021/04/17 09:57:19;;;;;;;4.57;3.43;;;;;17.10;102128.00;;;;10463011;28;20201;-75
2021/04/17 10:02:22;;;;;;;7.50;3.23;;;;;17.00;102108.00;;;;10520275;28;20340;-75
2021/04/17 10:07:24;;;;;;;6.13;3.47;;;;;17.00;102116.00;;;;10545398;28;20303;-75
2021/04/17 10:12:26;;;;;;;4.43;3.40;;;;;16.60;102111.00;;;;10509286;28;20204;-75
2021/04/17 10:17:27;;;;;;;7.27;4.27;;;;;17.00;102099.00;;;;10502112;28;20201;-75
2021/04/17 10:22:29;;;;;;;5.93;3.33;;;;;17.40;102096.00;;;;10484470;28;20203;-75
2021/04/17 10:27:34;;;;;;;5.73;3.37;;;;;15.80;102097.00;;;;10509404;28;20205;-75
2021/04/17 10:32:37;;;;;;;4.87;3.27;;;;;17.10;102077.00;;;;10500546;28;20200;-75
2021/04/17 10:37:47;;;;;;;4.60;3.20;;;;;16.50;102086.00;;;;10542301;28;20640;-75
2021/04/17 10:42:57;;;;;;;4.63;3.03;;;;;17.00;102074.00;;;;10519701;28;20680;-75
2021/04/17 10:48:02;;;;;;;7.83;3.47;;;;;18.00;102075.00;;;;10500650;28;20225;-75
2021/04/17 10:53:10;;;;;;;4.80;3.38;;;;;17.80;102060.00;;;;10466903;28;20277;-75
2021/04/17 10:58:27;;;;;;;5.28;3.15;;;;;18.50;102052.00;;;;10525110;28;20288;-75
2021/04/17 11:03:42;;;;;;;5.93;3.42;;;;;19.10;102046.00;;;;10502148;28;20208;-76
2021/04/17 11:08:44;;;;;;;4.50;3.97;;;;;19.80;102045.00;;;;10490941;28;20212;-76
2021/04/17 11:13:46;;;;;;;6.15;3.30;;;;;20.20;102043.00;;;;10546376;28;20197;-75
2021/04/17 11:18:47;;;;;;;5.28;3.67;;;;;20.50;102043.00;;;;10499810;28;20197;-76
2021/04/17 11:24:02;;;;;;;5.15;3.30;;;;;18.20;102028.00;;;;10505006;28;20241;-75
2021/04/17 11:29:04;;;;;;;5.00;3.40;;;;;18.00;102035.00;;;;10506342;28;20199;-75
2021/04/17 11:34:06;;;;;;;5.63;3.67;;;;;19.00;102025.00;;;;10495281;28;20706;-75
2021/04/17 11:39:08;;;;;;;4.18;3.78;;;;;19.50;102027.00;;;;10506286;28;20291;-76
2021/04/17 11:44:09;;;;;;;5.18;3.92;;;;;18.00;102014.00;;;;10506202;28;20216;-76
2021/04/17 11:49:10;;;;;;;6.05;3.70;;;;;19.10;102016.00;;;;10504070;28;20216;-76
2021/04/17 11:54:12;;;;;;;4.18;3.28;;;;;19.70;102011.00;;;;10518594;28;20207;-76
2021/04/17 11:59:13;;;;;;;5.38;3.53;;;;;20.50;102008.00;;;;10507032;28;20258;-76
2021/04/17 12:04:14;;;;;;;4.20;3.40;;;;;20.80;102005.00;;;;10526636;28;20749;-75
2021/04/17 12:09:16;;;;;;;5.35;3.40;;;;;19.40;102015.00;;;;10493948;28;20225;-75
2021/04/17 12:14:17;;;;;;;6.20;3.58;;;;;18.30;102023.00;;;;10500149;28;20230;-75
2021/04/17 12:19:19;;;;;;;6.05;3.38;;;;;17.10;102006.00;;;;10513996;28;20242;-76
2021/04/17 12:24:20;;;;;;;6.57;3.45;;;;;18.70;101992.00;;;;10477471;28;20244;-75
2021/04/17 12:29:21;;;;;;;5.40;3.50;;;;;19.10;102001.00;;;;10539936;28;20208;-75
2021/04/17 12:34:23;;;;;;;6.03;3.10;;;;;19.00;102000.00;;;;10490697;28;20193;-75
2021/04/17 12:39:24;;;;;;;4.45;3.33;;;;;19.50;101983.00;;;;10502949;28;20556;-75
2021/04/17 12:44:25;;;;;;;5.03;3.40;;;;;19.90;101983.00;;;;10507635;28;20822;-76
2021/04/17 12:49:27;;;;;;;6.15;3.40;;;;;20.40;101981.00;;;;10555486;28;20219;-76
2021/04/17 12:54:29;;;;;;;7.47;3.22;;;;;19.50;101974.00;;;;10510765;28;20192;-77
2021/04/17 12:59:30;;;;;;;5.22;3.20;;;;;19.40;101958.00;;;;10495114;28;20193;-76
2021/04/17 13:04:32;;;;;;;5.80;3.25;;;;;19.70;101945.00;;;;10478136;28;20228;-76
2021/04/17 13:09:33;;;;;;;7.15;3.08;;;;;19.90;101949.00;;;;10505052;28;20257;-76
2021/04/17 13:14:34;;;;;;;7.38;3.63;;;;;19.80;101942.00;;;;10538371;28;20708;-76
2021/04/17 13:19:36;;;;;;;4.57;3.45;;;;;18.50;101954.00;;;;10502380;28;20204;-76
2021/04/17 13:24:37;;;;;;;5.00;2.80;;;;;19.20;101932.00;;;;10512758;28;20213;-76
2021/04/17 13:29:39;;;;;;;6.57;3.30;;;;;20.00;101935.00;;;;10506588;28;20254;-76
2021/04/17 13:34:41;;;;;;;5.55;3.20;;;;;21.00;101928.00;;;;10519247;28;20255;-75
2021/04/17 13:39:43;;;;;;;3.38;2.40;;;;;19.70;101935.00;;;;10477921;28;20189;-76
2021/04/17 13:44:44;;;;;;;4.60;3.03;;;;;22.60;101925.00;;;;10552471;28;20217;-76
2021/04/17 13:49:45;;;;;;;3.35;2.80;;;;;24.20;101908.00;;;;10521010;28;20586;-75
2021/04/17 13:54:47;;;;;;;4.38;2.35;;;;;24.70;101914.00;;;;10521233;28;20238;-76
2021/04/17 13:59:48;;;;;;;7.40;3.20;;;;;22.90;101911.00;;;;10527195;28;20196;-76
2021/04/17 14:04:49;;;;;;;4.60;2.88;;;;;24.90;101907.00;;;;10561112;28;20571;-76
2021/04/17 14:09:51;;;;;;;5.68;3.22;;;;;24.70;101903.00;;;;10516172;28;20197;-76
2021/04/17 14:14:53;;;;;;;4.95;3.08;;;;;24.70;101886.00;;;;10468367;28;20284;-76
2021/04/17 14:19:54;;;;;;;4.15;2.85;;;;;25.60;101888.00;;;;10496459;28;20605;-76
2021/04/17 14:24:55;;;;;;;3.97;2.75;;;;;25.90;101877.00;;;;10527321;28;20254;-76
2021/04/17 14:29:58;;;;;;;4.55;2.40;;;;;27.50;101869.00;;;;10526528;28;20201;-76
2021/04/17 14:35:16;;;;;;;5.38;3.10;;;;;28.10;101876.00;;;;10525175;28;20198;-76
2021/04/17 14:40:18;;;;;;;3.88;2.72;;;;;28.20;101859.00;;;;10525965;28;20204;-76
2021/04/17 14:45:21;;;;;;;5.40;2.70;;;;;26.10;101862.00;;;;10506324;28;20241;-76
2021/04/17 14:50:22;;;;;;;3.85;2.78;;;;;27.60;101853.00;;;;10518345;28;20201;-76
2021/04/17 14:55:44;;;;;;;4.35;2.53;;;;;28.70;101838.00;;;;10524256;28;20193;-76
2021/04/17 15:00:45;;;;;;;4.35;2.78;;;;;27.90;101838.00;;;;10489777;28;20202;-76
2021/04/17 15:05:47;;;;;;;6.13;3.33;;;;;26.50;101823.00;;;;10527755;28;20221;-76
2021/04/17 15:10:49;;;;;;;7.07;2.33;;;;;28.30;101832.00;;;;10524308;28;20632;-76
2021/04/17 15:15:50;;;;;;;3.08;2.60;;;;;24.60;101834.00;;;;10482682;28;20197;-76
2021/04/17 15:20:55;;;;;;;6.00;2.78;;;;;22.10;101842.00;;;;10491484;28;20199;-76
2021/04/17 15:25:57;;;;;;;4.20;2.90;;;;;20.10;101841.00;;;;10515744;28;20217;-75
2021/04/17 15:31:01;;;;;;;5.55;2.60;;;;;19.30;101831.00;;;;10526322;28;20205;-76
2021/04/17 15:36:03;;;;;;;6.07;3.13;;;;;18.70;101830.00;;;;10523190;28;20251;-76
2021/04/17 15:41:10;;;;;;;4.20;2.83;;;;;17.10;101827.00;;;;10483388;28;20243;-76
2021/04/17 15:46:11;;;;;;;5.18;2.47;;;;;19.30;101820.00;;;;10485167;28;20225;-75
2021/04/17 15:51:13;;;;;;;6.13;2.70;;;;;19.90;101816.00;;;;10481116;28;20194;-75
2021/04/17 15:56:14;;;;;;;5.13;2.85;;;;;18.10;101805.00;;;;10559584;28;20201;-76
2021/04/17 16:17:29;;;;;;;5.57;2.70;;;;;17.00;101815.00;;;;10531184;28;20514;-76
2021/04/17 16:22:31;;;;;;;5.97;2.57;;;;;16.30;101802.00;;;;10550000;28;20201;-76
2021/04/17 16:27:32;;;;;;;2.73;2.43;;;;;15.80;101810.00;;;;10539725;28;20216;-76
2021/04/17 16:32:33;;;;;;;4.83;2.70;;;;;15.30;101804.00;;;;10546765;28;20196;-76
2021/04/17 16:37:36;;;;;;;6.03;2.73;;;;;14.90;101801.00;;;;10529958;28;20180;-76
2021/04/17 16:42:38;;;;;;;3.07;1.93;;;;;14.50;101792.00;;;;10460459;28;20240;-76
2021/04/17 16:47:40;;;;;;;4.00;2.03;;;;;14.10;101801.00;;;;10520961;28;20213;-76
2021/04/17 16:52:42;;;;;;;2.97;2.00;;;;;14.10;101802.00;;;;10515110;28;20291;-76
2021/04/17 16:57:43;;;;;;;3.80;2.40;;;;;14.10;101804.00;;;;10557724;28;20188;-76
2021/04/17 17:02:45;;;;;;;6.07;2.70;;;;;14.00;101802.00;;;;10521357;28;20193;-76
2021/04/17 17:07:46;;;;;;;3.93;2.50;;;;;13.90;101814.00;;;;10512962;28;20316;-76
2021/04/17 17:12:48;;;;;;;7.07;3.50;;;;;13.80;101804.00;;;;10525334;28;20193;-76
2021/04/17 17:17:50;;;;;;;4.07;2.73;;;;;13.70;101808.00;;;;10512863;28;20231;-76
2021/04/17 17:22:52;;;;;;;6.43;2.73;;;;;13.50;101814.00;;;;10519727;28;20239;-76
2021/04/17 17:27:53;;;;;;;8.23;3.43;;;;;13.40;101811.00;;;;10546463;28;20211;-76
2021/04/17 17:32:55;;;;;;;7.33;2.90;;;;;13.20;101809.00;;;;10551537;28;20218;-76
2021/04/17 17:37:56;;;;;;;6.20;2.93;;;;;13.10;101812.00;;;;10528885;28;20199;-76
2021/04/17 17:42:58;;;;;;;5.53;2.80;;;;;12.90;101819.00;;;;10511027;28;20196;-76
2021/04/17 17:48:00;;;;;;;5.83;3.00;;;;;12.70;101823.00;;;;10544922;28;20189;-76
2021/04/17 17:53:02;;;;;;;6.30;2.83;;;;;12.50;101825.00;;;;10561798;28;20201;-76
2021/04/17 17:58:04;;;;;;;6.67;3.27;;;;;12.30;101824.00;;;;10510839;28;20224;-76
2021/04/17 18:03:05;;;;;;;8.30;2.97;;;;;12.10;101832.00;;;;10560361;28;20716;-76
2021/04/17 18:08:12;;;;;;;8.43;2.83;;;;;11.90;101832.00;;;;10528432;28;20566;-76
2021/04/17 18:13:16;;;;;;;6.57;3.00;;;;;11.70;101832.00;;;;10544131;28;20200;-75
2021/04/17 18:18:18;;;;;;;5.93;2.97;;;;;11.50;101836.00;;;;10476781;28;20242;-75
2021/04/17 18:23:19;;;;;;;9.03;3.10;;;;;11.30;101834.00;;;;10526097;28;20209;-76
2021/04/17 18:28:21;;;;;;;6.67;3.03;;;;;11.10;101833.00;;;;10544680;28;20204;-75
2021/04/17 18:33:22;;;;;;;8.63;3.67;;;;;10.90;101844.00;;;;10541977;28;20783;-75
2021/04/17 18:38:26;;;;;;;7.70;3.03;;;;;10.70;101846.00;;;;10509559;28;20832;-75
2021/04/17 18:43:28;;;;;;;6.47;3.83;;;;;10.50;101844.00;;;;10508971;28;20208;-75
2021/04/17 18:48:29;;;;;;;6.13;3.30;;;;;10.40;101830.00;;;;10509325;28;20607;-75
2021/04/17 18:53:31;;;;;;;10.90;3.40;;;;;10.20;101836.00;;;;10559704;28;20185;-75
2021/04/17 18:58:32;;;;;;;5.57;2.90;;;;;10.10;101838.00;;;;10533495;28;20200;-75
2021/04/17 19:03:50;;;;;;;6.40;3.50;;;;;9.90;101841.00;;;;10552428;28;20263;-75
2021/04/17 19:08:52;;;;;;;9.73;4.00;;;;;9.80;101844.00;;;;10550139;28;20551;-76
2021/04/17 19:13:53;;;;;;;4.50;3.40;;;;;9.60;101858.00;;;;10567153;28;20235;-76
2021/04/17 19:18:54;;;;;;;6.30;3.90;;;;;9.50;101857.00;;;;10549913;28;20203;-76
2021/04/17 19:23:57;;;;;;;8.50;3.20;;;;;9.40;101859.00;;;;10561977;28;20215;-76
2021/04/17 19:28:58;;;;;;;9.63;4.23;;;;;9.30;101863.00;;;;10542382;28;20243;-76
2021/04/17 19:34:00;;;;;;;7.77;3.40;;;;;9.20;101874.00;;;;10506966;28;20189;-76
2021/04/17 19:39:04;;;;;;;8.87;3.30;;;;;9.10;101872.00;;;;10539968;28;20223;-76
2021/04/17 19:44:05;;;;;;;8.97;3.93;;;;;9.00;101873.00;;;;10538799;28;20738;-75
2021/04/17 19:49:11;;;;;;;8.93;3.57;;;;;8.90;101878.00;;;;10507624;28;20213;-75
2021/04/17 19:54:12;;;;;;;12.37;3.47;;;;;8.80;101876.00;;;;10506666;28;20193;-75
2021/04/17 19:59:13;;;;;;;8.37;3.40;;;;;8.70;101869.00;;;;10505940;28;20216;-75
2021/04/17 20:04:15;;;;;;;9.37;3.70;;;;;8.60;101864.00;;;;10455784;28;20573;-75
2021/04/17 20:09:17;;;;;;;9.67;4.17;;;;;8.60;101881.00;;;;10480488;28;20280;-75
2021/04/17 20:14:18;;;;;;;13.10;3.80;;;;;8.60;101884.00;;;;10479962;28;20190;-75
2021/04/17 20:19:20;;;;;;;7.10;3.20;;;;;8.70;101881.00;;;;10480186;28;20189;-75
2021/04/17 20:24:21;;;;;;;9.23;3.50;;;;;8.70;101878.00;;;;10495627;28;20751;-75
2021/04/17 20:29:22;;;;;;;11.63;4.47;;;;;8.60;101877.00;;;;10530254;28;20667;-75
2021/04/17 20:34:24;;;;;;;12.33;4.17;;;;;8.50;101889.00;;;;10546843;28;20278;-75
2021/04/17 20:39:25;;;;;;;8.60;3.60;;;;;8.30;101881.00;;;;10495704;28;20198;-75
2021/04/17 20:44:27;;;;;;;8.97;4.43;;;;;8.20;101876.00;;;;10462909;28;20324;-75
2021/04/17 20:49:28;;;;;;;9.77;4.00;;;;;8.00;101881.00;;;;10496205;28;20227;-75
2021/04/17 20:54:30;;;;;;;7.00;3.97;;;;;7.90;101881.00;;;;10521785;28;20246;-76
2021/04/17 20:59:31;;;;;;;8.00;4.23;;;;;7.80;101873.00;;;;10521529;28;20238;-75
2021/04/17 21:04:32;;;;;;;12.10;4.00;;;;;7.70;101870.00;;;;10504172;28;20228;-75
2021/04/17 21:09:34;;;;;;;10.13;4.40;;;;;7.60;101877.00;;;;10537657;28;20283;-75
2021/04/17 21:14:35;;;;;;;8.50;4.50;;;;;7.60;101875.00;;;;10504407;28;20216;-75
2021/04/17 21:19:36;;;;;;;10.27;4.20;;;;;7.60;101884.00;;;;10487271;28;20201;-75
2021/04/17 21:24:40;;;;;;;9.33;5.07;;;;;7.50;101879.00;;;;10521530;28;20695;-75
2021/04/17 21:29:41;;;;;;;8.30;4.03;;;;;7.50;101881.00;;;;10495089;28;20193;-75
2021/04/17 21:34:43;;;;;;;7.60;3.63;;;;;7.50;101881.00;;;;10478369;28;20239;-75
2021/04/17 21:39:45;;;;;;;12.30;4.50;;;;;7.50;101882.00;;;;10495130;28;20319;-75
2021/04/17 21:44:47;;;;;;;9.70;3.97;;;;;7.40;101877.00;;;;10494576;28;20224;-75
2021/04/17 21:49:48;;;;;;;8.23;4.00;;;;;7.30;101882.00;;;;10511745;28;20188;-75
2021/04/17 21:54:49;;;;;;;8.70;4.13;;;;;7.20;101877.00;;;;10524205;28;20197;-75
2021/04/17 21:59:50;;;;;;;15.63;5.10;;;;;7.30;101886.00;;;;10503769;28;20193;-75
2021/04/17 22:04:52;;;;;;;7.73;4.07;;;;;7.30;101879.00;;;;10519670;28;20816;-75
2021/04/17 22:09:53;;;;;;;9.80;4.50;;;;;7.30;101885.00;;;;10526371;28;20279;-75
2021/04/17 22:14:54;;;;;;;13.20;4.43;;;;;7.30;101880.00;;;;10510147;28;20189;-75
2021/04/17 22:19:57;;;;;;;12.40;4.83;;;;;7.30;101879.00;;;;10510661;28;20239;-75
2021/04/17 22:24:58;;;;;;;9.83;4.73;;;;;7.30;101886.00;;;;10509731;28;20258;-75
2021/04/17 22:29:59;;;;;;;15.70;5.23;;;;;7.20;101880.00;;;;10510169;28;20480;-75
2021/04/17 22:35:03;;;;;;;10.13;5.00;;;;;7.10;101882.00;;;;10526746;28;20196;-75
2021/04/17 22:40:11;;;;;;;6.83;4.20;;;;;7.00;101884.00;;;;10526783;28;20208;-75
2021/04/17 22:45:13;;;;;;;13.57;5.13;;;;;6.90;101890.00;;;;10508732;28;20238;-75
2021/04/17 22:50:15;;;;;;;12.43;4.43;;;;;6.80;101891.00;;;;10525743;28;20598;-75
2021/04/17 22:55:17;;;;;;;8.40;4.50;;;;;6.60;101891.00;;;;10559744;28;20546;-75
2021/04/17 23:00:20;;;;;;;12.33;5.03;;;;;6.40;101897.00;;;;10550272;28;20204;-75
2021/04/17 23:05:22;;;;;;;10.10;4.20;;;;;6.20;101890.00;;;;10526629;28;20224;-75
2021/04/17 23:10:26;;;;;;;15.20;4.93;;;;;6.10;101896.00;;;;10566856;28;20214;-75
2021/04/17 23:15:28;;;;;;;10.07;5.13;;;;;6.00;101886.00;;;;10567333;28;20195;-75
2021/04/17 23:20:29;;;;;;;7.40;4.17;;;;;5.90;101882.00;;;;10549468;28;20196;-75
2021/04/17 23:25:31;;;;;;;9.80;4.60;;;;;5.80;101890.00;;;;10514621;28;20221;-75
2021/04/17 23:30:33;;;;;;;13.20;5.47;;;;;5.70;101890.00;;;;10507141;28;20559;-75
2021/04/17 23:35:34;;;;;;;14.50;5.17;;;;;5.60;101896.00;;;;10490449;28;20238;-75
2021/04/17 23:40:36;;;;;;;9.33;5.17;;;;;5.60;101892.00;;;;10506670;28;20242;-75
2021/04/17 23:45:37;;;;;;;15.47;5.33;;;;;5.50;101899.00;;;;10506080;28;20784;-75
2021/04/17 23:50:38;;;;;;;11.80;5.77;;;;;5.30;101894.00;;;;10489639;28;20192;-75
2021/04/17 23:55:40;;;;;;;11.30;5.70;;;;;5.20;101896.00;;;;10506278;28;20199;-75
